createdAt,value
2019-04-04T00:01:16.745Z,6.80
2019-04-04T00:03:45.176Z,6.80
2019-04-04T00:06:13.587Z,6.80
2019-04-04T00:08:41.989Z,6.80
2019-04-04T00:11:10.384Z,6.80
2019-04-04T00:13:40.055Z,6.70
2019-04-04T00:16:08.914Z,6.70
2019-04-04T00:18:37.383Z,6.70
2019-04-04T00:21:05.790Z,6.70
2019-04-04T00:23:37.660Z,6.80
2019-04-04T00:26:04.722Z,6.90
2019-04-04T00:28:33.126Z,6.80
2019-04-04T00:31:01.537Z,6.70
2019-04-04T00:33:29.932Z,6.80
2019-04-04T00:35:58.342Z,6.80
2019-04-04T00:38:26.734Z,7.00
2019-04-04T00:40:55.130Z,7.00
2019-04-04T00:43:23.526Z,7.00
2019-04-04T00:45:51.942Z,7.00
2019-04-04T00:48:20.343Z,7.00
2019-04-04T00:50:48.742Z,7.00
2019-04-04T00:53:17.218Z,6.90
2019-04-04T00:55:46.926Z,6.90
2019-04-04T00:58:15.496Z,6.80
2019-04-04T01:00:43.898Z,6.90
2019-04-04T01:05:47.150Z,6.80
2019-04-04T01:08:15.551Z,6.90
2019-04-04T01:10:43.948Z,6.80
2019-04-04T01:13:12.359Z,6.80
2019-04-04T01:15:40.827Z,6.90
2019-04-04T01:18:09.226Z,7.00
2019-04-04T01:20:37.651Z,6.90
2019-04-04T01:23:06.066Z,6.80
2019-04-04T01:25:34.640Z,6.80
2019-04-04T01:28:03.046Z,6.90
2019-04-04T01:30:31.707Z,6.80
2019-04-04T01:33:00.102Z,6.70
2019-04-04T01:35:28.588Z,6.80
2019-04-04T01:37:58.760Z,6.90
2019-04-04T01:40:27.272Z,6.90
2019-04-04T01:42:55.671Z,6.90
2019-04-04T01:45:24.070Z,6.70
2019-04-04T01:47:52.476Z,6.70
2019-04-04T01:50:22.445Z,6.60
2019-04-04T01:52:51.002Z,6.60
2019-04-04T01:55:19.394Z,6.40
2019-04-04T01:57:47.807Z,6.50
2019-04-04T02:00:16.443Z,6.50
2019-04-04T02:02:44.838Z,6.50
2019-04-04T02:05:13.399Z,6.40
2019-04-04T02:07:41.802Z,6.30
2019-04-04T02:10:10.642Z,6.30
2019-04-04T02:12:39.392Z,6.30
2019-04-04T02:15:13.932Z,6.30
2019-04-04T02:17:40.562Z,6.30
2019-04-04T02:20:09.206Z,6.20
2019-04-04T02:22:37.610Z,6.20
2019-04-04T02:25:07.206Z,6.20
2019-04-04T02:27:37.684Z,6.20
2019-04-04T02:30:06.359Z,6.20
2019-04-04T02:32:34.755Z,6.20
2019-04-04T02:35:03.434Z,6.20
2019-04-04T02:37:31.854Z,6.20
2019-04-04T02:40:00.273Z,6.20
2019-04-04T02:42:28.731Z,6.20
2019-04-04T02:44:57.139Z,6.20
2019-04-04T02:49:53.616Z,6.00
2019-04-04T02:52:22.122Z,5.80
2019-04-04T02:54:50.541Z,5.80
2019-04-04T02:57:18.937Z,5.70
2019-04-04T02:59:47.407Z,5.70
2019-04-04T03:02:15.806Z,5.60
2019-04-04T03:04:46.795Z,5.60
2019-04-04T03:07:14.423Z,5.70
2019-04-04T03:09:43.762Z,5.70
2019-04-04T03:12:12.403Z,5.80
2019-04-04T03:14:40.837Z,5.90
2019-04-04T03:17:09.300Z,5.80
2019-04-04T03:19:37.708Z,5.70
2019-04-04T03:22:06.143Z,5.60
2019-04-04T03:24:38.675Z,5.60
2019-04-04T03:27:04.690Z,5.60
2019-04-04T03:29:37.318Z,5.60
2019-04-04T03:32:03.233Z,5.60
2019-04-04T03:34:31.659Z,5.70
2019-04-04T03:37:00.064Z,5.80
2019-04-04T03:39:28.471Z,5.80
2019-04-04T03:41:56.888Z,5.80
2019-04-04T03:44:25.280Z,5.70
2019-04-04T03:46:53.698Z,5.60
2019-04-04T03:49:24.467Z,5.60
2019-04-04T03:51:52.231Z,5.60
2019-04-04T03:54:23.408Z,5.60
2019-04-04T03:56:52.049Z,5.60
2019-04-04T03:59:20.472Z,5.60
2019-04-04T04:01:48.875Z,5.80
2019-04-04T04:04:17.354Z,5.70
2019-04-04T04:06:45.764Z,5.80
2019-04-04T04:09:14.174Z,5.80
2019-04-04T04:11:42.579Z,5.60
2019-04-04T04:14:10.989Z,5.50
2019-04-04T04:16:39.487Z,5.60
2019-04-04T04:19:07.892Z,5.60
2019-04-04T04:21:36.295Z,5.60
2019-04-04T04:24:04.720Z,5.60
2019-04-04T04:26:33.663Z,5.50
2019-04-04T04:29:02.062Z,5.30
2019-04-04T04:31:30.479Z,5.20
2019-04-04T04:34:01.580Z,5.30
2019-04-04T04:36:29.013Z,5.00
2019-04-04T04:39:00.038Z,5.10
2019-04-04T04:41:27.679Z,5.10
2019-04-04T04:43:56.116Z,5.10
2019-04-04T04:46:24.520Z,5.20
2019-04-04T04:48:52.922Z,5.00
2019-04-04T04:51:21.328Z,5.00
2019-04-04T04:56:19.690Z,4.80
2019-04-04T04:58:48.099Z,4.80
2019-04-04T05:01:18.341Z,4.70
2019-04-04T05:03:46.634Z,4.80
2019-04-04T05:06:15.042Z,4.80
2019-04-04T05:08:43.459Z,4.80
2019-04-04T05:11:14.408Z,4.80
2019-04-04T05:13:41.994Z,4.90
2019-04-04T05:16:10.401Z,5.00
2019-04-04T05:18:38.802Z,5.00
2019-04-04T05:21:07.206Z,5.20
2019-04-04T05:23:35.627Z,5.30
2019-04-04T05:26:04.299Z,5.30
2019-04-04T05:28:32.721Z,5.40
2019-04-04T05:31:01.127Z,5.30
2019-04-04T05:33:31.566Z,5.30
2019-04-04T05:35:59.655Z,5.50
2019-04-04T05:38:28.350Z,5.60
2019-04-04T05:40:56.790Z,5.70
2019-04-04T05:43:25.180Z,5.70
2019-04-04T05:45:53.589Z,5.60
2019-04-04T05:48:22.027Z,5.70
2019-04-04T05:50:50.433Z,5.70
2019-04-04T05:53:21.328Z,5.80
2019-04-04T05:55:48.978Z,5.80
2019-04-04T05:58:17.383Z,5.70
2019-04-04T06:00:46.755Z,5.60
2019-04-04T06:03:15.820Z,5.60
2019-04-04T06:05:44.469Z,5.80
2019-04-04T06:08:12.862Z,5.90
2019-04-04T06:10:41.300Z,5.80
2019-04-04T06:13:09.702Z,5.80
2019-04-04T06:15:38.578Z,5.80
2019-04-04T06:18:06.990Z,6.00
2019-04-04T06:20:35.394Z,6.00
2019-04-04T06:23:03.807Z,6.20
2019-04-04T06:25:35.671Z,6.10
2019-04-04T06:28:02.412Z,6.00
2019-04-04T06:30:42.544Z,6.00
2019-04-04T06:33:03.987Z,6.20
2019-04-04T06:35:31.150Z,6.20
2019-04-04T06:37:59.564Z,6.00
2019-04-04T06:40:30.175Z,6.00
2019-04-04T06:42:58.242Z,6.10
2019-04-04T06:45:29.493Z,6.20
2019-04-04T06:47:57.505Z,6.20
2019-04-04T06:50:26.674Z,6.10
2019-04-04T06:52:56.496Z,6.00
2019-04-04T06:55:28.449Z,6.00
2019-04-04T06:57:55.407Z,6.10
2019-04-04T07:00:23.808Z,6.30
2019-04-04T07:02:55.017Z,6.30
2019-04-04T07:05:22.342Z,6.20
2019-04-04T07:07:50.814Z,6.30
2019-04-04T07:10:21.721Z,6.40
2019-04-04T07:12:49.358Z,6.50
2019-04-04T07:15:17.894Z,6.50
2019-04-04T07:17:46.300Z,6.50
2019-04-04T07:20:16.696Z,6.60
2019-04-04T07:22:45.013Z,6.50
2019-04-04T07:25:13.421Z,6.60
2019-04-04T07:27:41.872Z,6.70
2019-04-04T07:30:10.743Z,6.80
2019-04-04T07:32:41.570Z,7.00
2019-04-04T07:35:09.684Z,7.00
2019-04-04T07:37:38.090Z,7.00
2019-04-04T07:40:07.446Z,7.20
2019-04-04T07:42:35.847Z,7.30
2019-04-04T07:45:06.254Z,7.40
2019-04-04T07:47:34.655Z,7.20
2019-04-04T07:50:03.146Z,7.10
2019-04-04T07:52:33.141Z,7.10
2019-04-04T07:55:01.764Z,7.20
2019-04-04T07:57:30.471Z,7.30
2019-04-04T07:59:59.279Z,7.10
2019-04-04T08:02:27.705Z,7.10
2019-04-04T08:04:56.099Z,7.20
2019-04-04T08:07:24.501Z,7.10
2019-04-04T08:09:52.918Z,7.20
2019-04-04T08:12:21.319Z,7.20
2019-04-04T08:14:49.741Z,7.00
2019-04-04T08:17:19.043Z,7.00
2019-04-04T08:19:59.142Z,7.00
2019-04-04T08:22:18.078Z,7.00
2019-04-04T08:24:46.627Z,7.00
2019-04-04T08:27:15.065Z,7.00
2019-04-04T08:29:43.470Z,7.20
2019-04-04T08:32:11.866Z,7.30
2019-04-04T08:34:40.279Z,7.40
2019-04-04T08:37:08.691Z,7.20
2019-04-04T08:39:37.094Z,7.20
2019-04-04T08:42:05.497Z,7.10
2019-04-04T08:44:33.983Z,7.10
2019-04-04T08:47:02.379Z,7.20
2019-04-04T08:49:30.779Z,7.20
2019-04-04T08:51:59.198Z,7.30
2019-04-04T08:54:27.602Z,7.10
2019-04-04T08:56:56.006Z,7.20
2019-04-04T08:59:24.418Z,7.20
2019-04-04T09:01:52.818Z,7.20
2019-04-04T09:06:51.018Z,7.50
2019-04-04T09:09:19.426Z,7.40
2019-04-04T09:11:47.847Z,7.40
2019-04-04T09:14:16.246Z,7.20
2019-04-04T09:16:44.652Z,7.30
2019-04-04T09:19:13.059Z,7.40
2019-04-04T09:21:41.491Z,7.50
2019-04-04T09:24:09.886Z,7.30
2019-04-04T09:26:38.301Z,7.40
2019-04-04T09:29:06.706Z,7.40
2019-04-04T09:31:35.116Z,7.60
2019-04-04T09:34:03.588Z,7.70
2019-04-04T09:36:32.019Z,7.80
2019-04-04T09:39:00.422Z,7.70
2019-04-04T09:41:28.973Z,7.80
2019-04-04T09:43:57.381Z,7.90
2019-04-04T09:46:25.788Z,8.00
2019-04-04T09:48:54.190Z,7.70
2019-04-04T09:51:22.602Z,7.90
2019-04-04T09:53:53.330Z,8.00
2019-04-04T09:56:21.139Z,8.10
2019-04-04T09:58:49.554Z,8.10
2019-04-04T10:01:17.958Z,8.10
2019-04-04T10:03:46.358Z,8.10
2019-04-04T10:06:14.780Z,8.10
2019-04-04T10:08:43.220Z,8.10
2019-04-04T10:11:11.602Z,8.20
2019-04-04T10:13:40.146Z,8.00
2019-04-04T10:16:08.590Z,8.00
2019-04-04T10:18:36.996Z,8.00
2019-04-04T10:21:11.571Z,8.00
2019-04-04T10:23:35.531Z,8.00
2019-04-04T10:26:03.932Z,8.10
2019-04-04T10:28:32.417Z,8.20
2019-04-04T10:31:00.838Z,8.30
2019-04-04T10:33:29.230Z,8.40
2019-04-04T10:35:57.626Z,8.50
2019-04-04T10:38:26.041Z,8.60
2019-04-04T10:40:54.459Z,8.50
2019-04-04T10:43:22.870Z,8.40
2019-04-04T10:45:51.276Z,8.30
2019-04-04T10:48:19.678Z,8.20
2019-04-04T10:50:48.394Z,8.30
2019-04-04T10:53:16.813Z,8.40
2019-04-04T10:55:45.215Z,8.30
2019-04-04T10:58:13.622Z,8.30
2019-04-04T11:00:42.030Z,8.40
2019-04-04T11:03:10.427Z,8.50
2019-04-04T11:05:38.826Z,8.40
2019-04-04T11:08:07.246Z,8.60
2019-04-04T11:10:35.658Z,8.30
2019-04-04T11:13:04.082Z,8.40
2019-04-04T11:15:32.482Z,8.50
2019-04-04T11:18:00.874Z,8.40
2019-04-04T11:20:29.277Z,8.50
2019-04-04T11:22:57.675Z,8.20
2019-04-04T11:25:26.081Z,8.00
2019-04-04T11:27:54.478Z,8.10
2019-04-04T11:30:22.942Z,8.20
2019-04-04T11:32:51.371Z,8.30
2019-04-04T11:35:19.761Z,8.20
2019-04-04T11:37:48.157Z,8.20
2019-04-04T11:40:16.563Z,8.30
2019-04-04T11:42:44.959Z,8.20
2019-04-04T11:45:13.494Z,8.20
2019-04-04T11:47:41.974Z,8.30
2019-04-04T11:50:11.402Z,8.30
2019-04-04T11:52:39.874Z,8.40
2019-04-04T11:55:08.414Z,8.40
2019-04-04T11:57:36.824Z,8.30
2019-04-04T12:00:09.130Z,8.30
2019-04-04T12:02:37.535Z,8.40
2019-04-04T12:05:07.899Z,8.20
2019-04-04T12:07:38.352Z,8.40
2019-04-04T12:10:10.165Z,8.40
2019-04-04T12:12:38.562Z,8.50
2019-04-04T12:15:10.445Z,8.40
2019-04-04T12:17:38.841Z,8.30
2019-04-04T12:20:07.880Z,8.40
2019-04-04T12:22:36.283Z,8.40
2019-04-04T12:25:06.223Z,8.50
2019-04-04T12:27:34.634Z,8.50
2019-04-04T12:30:03.341Z,8.40
2019-04-04T12:32:31.740Z,8.60
2019-04-04T12:35:00.156Z,8.60
2019-04-04T12:37:28.555Z,8.60
2019-04-04T12:39:56.957Z,8.60
2019-04-04T12:42:25.350Z,8.70
2019-04-04T12:44:53.760Z,8.70
2019-04-04T12:47:22.154Z,8.70
2019-04-04T12:49:50.555Z,8.70
2019-04-04T12:52:18.967Z,8.70
2019-04-04T12:54:47.362Z,8.50
2019-04-04T12:57:15.762Z,8.50
2019-04-04T12:59:44.170Z,8.60
2019-04-04T13:02:12.570Z,8.50
2019-04-04T13:04:40.971Z,8.40
2019-04-04T13:07:09.662Z,8.50
2019-04-04T13:09:38.065Z,8.50
2019-04-04T13:12:06.531Z,8.40
2019-04-04T13:14:34.946Z,8.20
2019-04-04T13:17:03.350Z,8.20
2019-04-04T13:19:31.753Z,8.30
2019-04-04T13:22:00.223Z,8.00
2019-04-04T13:24:28.619Z,8.20
2019-04-04T13:26:57.027Z,8.20
2019-04-04T13:29:25.482Z,8.00
2019-04-04T13:31:53.890Z,7.80
2019-04-04T13:34:22.292Z,7.90
2019-04-04T13:36:50.715Z,7.90
2019-04-04T13:39:19.106Z,7.80
2019-04-04T13:41:47.514Z,7.90
2019-04-04T13:44:16.243Z,7.90
2019-04-04T13:46:44.642Z,7.90
2019-04-04T13:49:13.135Z,8.00
2019-04-04T13:51:41.527Z,8.10
2019-04-04T13:54:09.927Z,8.00
2019-04-04T13:56:38.402Z,8.10
2019-04-04T13:59:06.866Z,8.10
2019-04-04T14:01:35.267Z,8.10
2019-04-04T14:04:04.174Z,8.10
2019-04-04T14:06:32.569Z,8.10
2019-04-04T14:09:00.963Z,8.20
2019-04-04T14:11:29.361Z,8.20
2019-04-04T14:13:58.922Z,8.00
2019-04-04T14:16:27.412Z,7.90
2019-04-04T14:18:55.806Z,8.00
2019-04-04T14:21:24.455Z,8.00
2019-04-04T14:23:53.115Z,8.00
2019-04-04T14:26:21.798Z,7.90
2019-04-04T14:28:50.200Z,7.90
2019-04-04T14:31:18.598Z,7.70
2019-04-04T14:33:47.006Z,7.60
2019-04-04T14:36:15.409Z,7.60
2019-04-04T14:38:43.794Z,7.60
2019-04-04T14:41:12.234Z,7.60
2019-04-04T14:43:40.672Z,7.60
2019-04-04T14:46:09.072Z,7.70
2019-04-04T14:48:37.480Z,7.70
2019-04-04T14:51:05.880Z,7.90
2019-04-04T14:53:34.507Z,7.90
2019-04-04T14:56:03.038Z,8.10
2019-04-04T14:58:31.447Z,8.20
2019-04-04T15:00:59.839Z,8.20
2019-04-04T15:03:28.246Z,8.20
2019-04-04T15:05:56.638Z,8.20
2019-04-04T15:08:25.111Z,8.20
2019-04-04T15:10:53.888Z,8.10
2019-04-04T15:13:22.304Z,8.10
2019-04-04T15:16:10.799Z,8.10
2019-04-04T15:18:39.198Z,8.10
2019-04-04T15:21:10.753Z,8.00
2019-04-04T15:23:39.155Z,8.10
2019-04-04T15:26:09.792Z,8.00
2019-04-04T15:28:37.824Z,8.00
2019-04-04T15:31:06.230Z,8.00
2019-04-04T15:33:34.638Z,7.90
2019-04-04T15:36:03.122Z,7.70
2019-04-04T15:38:31.751Z,7.70
2019-04-04T15:41:00.152Z,7.70
2019-04-04T15:43:28.547Z,7.60
2019-04-04T15:45:56.959Z,7.60
2019-04-04T15:48:25.427Z,7.60
2019-04-04T15:50:53.822Z,7.60
2019-04-04T15:53:22.318Z,7.60
2019-04-04T15:55:50.974Z,7.80
2019-04-04T15:58:19.601Z,7.90
2019-04-04T16:00:48.014Z,7.90
2019-04-04T16:03:16.415Z,8.00
2019-04-04T16:05:44.821Z,8.00
2019-04-04T16:08:13.295Z,8.10
2019-04-04T16:10:41.705Z,8.20
2019-04-04T16:13:10.102Z,8.20
2019-04-04T16:15:38.759Z,8.20
2019-04-04T16:18:07.155Z,8.30
2019-04-04T16:20:35.554Z,8.20
2019-04-04T16:23:04.269Z,8.00
2019-04-04T16:25:32.661Z,8.00
2019-04-04T16:28:01.094Z,8.00
2019-04-04T16:30:29.548Z,8.00
2019-04-04T16:32:57.947Z,7.80
2019-04-04T16:35:26.346Z,7.70
2019-04-04T16:37:54.759Z,7.80
2019-04-04T16:40:23.237Z,7.80
2019-04-04T16:42:51.623Z,7.70
2019-04-04T16:45:20.283Z,7.60
2019-04-04T16:47:48.683Z,7.50
2019-04-04T16:50:17.144Z,7.40
2019-04-04T16:52:45.560Z,7.50
2019-04-04T16:55:14.096Z,7.50
2019-04-04T16:57:43.564Z,7.50
2019-04-04T17:00:13.506Z,7.50
2019-04-04T17:02:42.291Z,7.40
2019-04-04T17:05:11.371Z,7.50
2019-04-04T17:07:39.856Z,7.40
2019-04-04T17:10:08.990Z,7.50
2019-04-04T17:12:37.382Z,7.40
2019-04-04T17:15:07.226Z,7.40
2019-04-04T17:17:35.620Z,7.40
2019-04-04T17:20:06.162Z,7.40
2019-04-04T17:22:34.635Z,7.40
2019-04-04T17:25:03.105Z,7.40
2019-04-04T17:27:31.518Z,7.30
2019-04-04T17:30:00.282Z,7.30
2019-04-04T17:32:28.851Z,7.20
2019-04-04T17:34:57.252Z,7.30
2019-04-04T17:37:25.666Z,7.40
2019-04-04T17:39:54.570Z,7.50
2019-04-04T17:42:30.432Z,7.60
2019-04-04T17:44:53.645Z,7.70
2019-04-04T17:47:22.550Z,7.70
2019-04-04T17:49:51.500Z,7.70
2019-04-04T17:52:20.511Z,7.80
2019-04-04T17:54:48.947Z,7.70
2019-04-04T17:57:17.772Z,7.70
2019-04-04T17:59:46.199Z,7.60
2019-04-04T18:02:14.611Z,7.50
2019-04-04T18:04:48.575Z,7.30
2019-04-04T18:07:13.216Z,7.40
2019-04-04T18:09:41.615Z,7.40
2019-04-04T18:12:10.014Z,7.40
2019-04-04T18:14:38.410Z,7.40
2019-04-04T18:17:06.810Z,7.50
2019-04-04T18:19:35.224Z,7.50
2019-04-04T18:22:03.618Z,7.50
2019-04-04T18:24:32.024Z,7.50
2019-04-04T18:27:00.434Z,7.50
2019-04-04T18:29:28.823Z,7.50
2019-04-04T18:31:57.222Z,7.50
2019-04-04T18:34:25.998Z,7.40
2019-04-04T18:36:54.396Z,7.40
2019-04-04T18:39:22.786Z,7.40
2019-04-04T18:41:51.207Z,7.40
2019-04-04T18:44:19.608Z,7.50
2019-04-04T18:46:48.017Z,7.50
2019-04-04T18:49:16.411Z,7.60
2019-04-04T18:51:45.079Z,7.60
2019-04-04T18:54:13.486Z,7.60
2019-04-04T18:56:42.218Z,7.60
2019-04-04T18:59:10.917Z,7.70
2019-04-04T19:01:39.318Z,7.70
2019-04-04T19:04:07.715Z,7.60
2019-04-04T19:06:36.119Z,7.60
2019-04-04T19:09:14.750Z,7.40
2019-04-04T19:11:39.114Z,7.50
2019-04-04T19:14:07.510Z,7.50
2019-04-04T19:16:35.909Z,7.50
2019-04-04T19:19:04.643Z,7.60
2019-04-04T19:21:33.060Z,7.60
2019-04-04T19:24:01.689Z,7.60
2019-04-04T19:26:30.174Z,7.60
2019-04-04T19:28:58.575Z,7.40
2019-04-04T19:31:26.982Z,7.20
2019-04-04T19:33:55.405Z,7.10
2019-04-04T19:36:23.802Z,7.10
2019-04-04T19:38:52.211Z,7.20
2019-04-04T19:41:20.658Z,7.20
2019-04-04T19:43:49.127Z,7.20
2019-04-04T19:46:17.526Z,7.20
2019-04-04T19:48:48.221Z,7.20
2019-04-04T19:51:16.068Z,7.20
2019-04-04T19:53:44.479Z,7.30
2019-04-04T19:56:12.945Z,7.40
2019-04-04T19:58:41.643Z,7.30
2019-04-04T20:01:10.146Z,7.40
2019-04-04T20:03:38.549Z,7.40
2019-04-04T20:06:06.949Z,7.40
2019-04-04T20:08:35.366Z,7.50
2019-04-04T20:11:03.835Z,7.50
2019-04-04T20:13:32.247Z,7.50
2019-04-04T20:16:00.963Z,7.60
2019-04-04T20:18:29.366Z,7.60
2019-04-04T20:20:57.766Z,7.60
2019-04-04T20:23:26.195Z,7.50
2019-04-04T20:25:54.590Z,7.40
2019-04-04T20:28:22.999Z,7.40
2019-04-04T20:30:51.410Z,7.40
2019-04-04T20:33:19.818Z,7.40
2019-04-04T20:35:48.219Z,7.40
2019-04-04T20:38:16.648Z,7.30
2019-04-04T20:40:45.043Z,7.30
2019-04-04T20:43:13.438Z,7.30
2019-04-04T20:45:41.865Z,7.30
2019-04-04T20:48:10.270Z,7.20
2019-04-04T20:50:38.678Z,7.20
2019-04-04T20:53:07.087Z,7.20
2019-04-04T20:55:35.490Z,7.30
2019-04-04T20:58:03.895Z,7.30
2019-04-04T21:00:32.310Z,7.30
2019-04-04T21:03:00.714Z,7.30
2019-04-04T21:05:29.122Z,7.30
2019-04-04T21:07:57.546Z,7.30
2019-04-04T21:10:25.947Z,7.30
2019-04-04T21:12:54.347Z,7.20
2019-04-04T21:15:22.762Z,7.20
2019-04-04T21:17:51.167Z,7.10
2019-04-04T21:20:19.573Z,6.90
2019-04-04T21:22:47.992Z,7.00
2019-04-04T21:25:16.399Z,7.00
2019-04-04T21:27:44.803Z,6.90
2019-04-04T21:30:13.287Z,6.90
2019-04-04T21:32:41.687Z,6.90
2019-04-04T21:35:10.233Z,6.80
2019-04-04T21:37:38.647Z,6.80
2019-04-04T21:40:07.119Z,6.80
2019-04-04T21:42:35.874Z,6.90
2019-04-04T21:45:06.622Z,6.90
2019-04-04T21:47:35.022Z,6.80
2019-04-04T21:50:05.064Z,6.90
2019-04-04T21:52:33.499Z,7.00
2019-04-04T21:55:01.993Z,6.90
2019-04-04T21:57:30.398Z,6.80
2019-04-04T21:59:59.101Z,6.80
2019-04-04T22:02:27.539Z,6.80
2019-04-04T22:04:55.971Z,6.70
2019-04-04T22:07:24.395Z,6.60
2019-04-04T22:09:52.907Z,6.70
2019-04-04T22:12:21.341Z,6.70
2019-04-04T22:14:49.839Z,6.80
2019-04-04T22:17:18.292Z,6.90
2019-04-04T22:19:46.715Z,7.00
2019-04-04T22:22:15.142Z,7.10
2019-04-04T22:24:43.582Z,7.10
2019-04-04T22:27:12.007Z,7.20
2019-04-04T22:29:40.427Z,7.20
2019-04-04T22:32:08.864Z,7.30
2019-04-04T22:34:37.296Z,7.30
2019-04-04T22:37:05.724Z,7.30
2019-04-04T22:39:34.147Z,7.30
2019-04-04T22:42:02.584Z,7.30
2019-04-04T22:44:34.957Z,7.30
2019-04-04T22:47:01.167Z,7.30
2019-04-04T22:49:29.623Z,7.30
2019-04-04T22:51:58.047Z,7.30
2019-04-04T22:54:26.473Z,7.30
2019-04-04T22:56:54.919Z,7.30
2019-04-04T22:59:23.347Z,7.30
2019-04-04T23:01:51.770Z,7.30
2019-04-04T23:04:20.209Z,7.30
2019-04-04T23:06:48.638Z,7.10
2019-04-04T23:09:17.064Z,7.00
2019-04-04T23:11:45.520Z,6.80
2019-04-04T23:14:13.950Z,6.80
2019-04-04T23:16:42.378Z,6.70
2019-04-04T23:19:10.907Z,6.70
2019-04-04T23:21:39.331Z,6.70
2019-04-04T23:24:07.772Z,6.80
2019-04-04T23:26:36.278Z,6.90
2019-04-04T23:29:04.699Z,7.00
2019-04-04T23:31:33.136Z,7.00
2019-04-04T23:34:01.568Z,6.90
2019-04-04T23:36:35.329Z,6.90
2019-04-04T23:39:00.408Z,6.80
2019-04-04T23:41:28.859Z,6.90
2019-04-04T23:43:57.280Z,6.90
2019-04-04T23:46:25.704Z,7.00
2019-04-04T23:48:54.143Z,7.00
2019-04-04T23:51:22.569Z,7.00
2019-04-04T23:53:50.992Z,7.00
2019-04-04T23:56:19.423Z,7.00
2019-04-04T23:58:47.890Z,7.00
